Time;durP1;ratioP1;P1;durP2;ratioP2;P2;SDS_P1;SDS_P2;PMS_P1;PMS_P2;Temp;Humidity;BMP_temperature;BMP_pressure;BME280_temperature;BME280_humidity;BME280_pressure;Samples;Min_cycle;Max_cycle;Signal;HPM_P1;HPM_P2
2023/06/08 00:01:44;;;;;;;10.73;3.17;;;;;;;20.05;39.27;100735.50;123946;1102;104305;-80
2023/06/08 00:04:16;;;;;;;6.90;3.30;;;;;;;20.01;39.09;100731.96;123894;1102;104421;-82
2023/06/08 00:06:49;;;;;;;6.33;3.30;;;;;;;19.97;39.09;100731.95;123818;1102;104243;-80
2023/06/08 00:09:19;;;;;;;;;;;;;;;19.91;39.09;100724.84;123841;1102;104175;-79
2023/06/08 00:11:52;;;;;;;6.55;3.10;;;;;;;19.87;39.17;100721.30;123724;1102;104180;-80
2023/06/08 00:14:22;;;;;;;;;;;;;;;19.85;38.81;100724.83;123837;1102;104354;-79
2023/06/08 00:16:53;;;;;;;8.47;3.43;;;;;;;19.86;39.05;100724.83;123760;1102;104290;-82
2023/06/08 00:19:25;;;;;;;5.65;3.30;;;;;;;19.89;39.72;100727.50;123812;1102;104268;-80
2023/06/08 00:21:58;;;;;;;7.60;3.53;;;;;;;19.89;39.30;100727.50;123732;1102;104302;-79
2023/06/08 00:24:30;;;;;;;8.93;3.42;;;;;;;19.89;39.37;100727.50;123669;1102;104332;-79
2023/06/08 00:27:01;;;;;;;9.37;3.70;;;;;;;19.87;40.03;100723.96;123719;1102;104271;-79
2023/06/08 00:29:33;;;;;;;5.90;3.50;;;;;;;19.84;40.24;100725.74;123756;1102;104194;-78
2023/06/08 00:32:05;;;;;;;7.03;3.33;;;;;;;19.83;40.09;100718.63;123784;1102;104353;-79
2023/06/08 00:34:40;;;;;;;7.83;3.57;;;;;;;19.83;40.37;100721.29;123761;1102;104345;-79
2023/06/08 00:37:11;;;;;;;7.80;3.80;;;;;;;19.83;40.44;100719.50;123761;1102;104338;-78
2023/06/08 00:39:43;;;;;;;5.13;3.50;;;;;;;19.81;39.85;100712.42;123707;1102;104287;-78
2023/06/08 00:42:14;;;;;;;7.83;3.57;;;;;;;19.79;40.28;100714.17;123797;1102;104760;-78
2023/06/08 00:44:45;;;;;;;6.27;3.50;;;;;;;19.75;40.13;100711.47;123914;1102;104240;-79
2023/06/08 00:47:17;;;;;;;9.47;3.60;;;;;;;19.73;40.04;100709.72;123771;1102;104274;-79
2023/06/08 00:49:50;;;;;;;7.70;3.50;;;;;;;19.70;40.94;100715.91;123795;1102;104267;-79
2023/06/08 00:52:25;;;;;;;10.60;3.50;;;;;;;19.66;40.63;100705.25;123888;1102;104242;-79
2023/06/08 00:55:00;;;;;;;8.00;3.73;;;;;;;19.63;40.61;100707.91;123813;1102;104318;-79
2023/06/08 00:57:34;;;;;;;8.77;3.80;;;;;;;19.62;40.99;100717.69;123887;1102;104239;-78
2023/06/08 01:00:11;;;;;;;8.43;3.85;;;;;;;19.61;41.04;100710.57;123770;1102;104300;-79
2023/06/08 01:02:43;;;;;;;7.37;3.80;;;;;;;19.60;41.31;100714.11;123780;1101;104168;-80
2023/06/08 01:05:16;;;;;;;8.77;3.40;;;;;;;19.60;40.79;100710.56;123762;1102;104243;-79
2023/06/08 01:08:20;;;;;;;13.27;4.17;;;;;;;19.55;40.93;100703.45;123854;1102;104230;-79
2023/06/08 01:11:00;;;;;;;9.05;3.95;;;;;;;19.53;41.64;100707.02;123866;1102;104242;-78
2023/06/08 01:13:40;;;;;;;6.10;3.60;;;;;;;19.53;41.24;100709.67;123723;1102;104354;-79
2023/06/08 01:16:15;;;;;;;9.60;4.23;;;;;;;19.50;41.04;100707.88;123734;1102;104345;-80
2023/06/08 01:18:47;;;;;;;10.77;4.33;;;;;;;19.45;41.54;100701.67;124010;1102;104225;-79
2023/06/08 01:21:35;;;;;;;11.00;4.50;;;;;;;19.40;41.63;100701.66;123699;1102;104277;-79
2023/06/08 01:24:13;;;;;;;8.83;4.20;;;;;;;19.38;41.78;100702.53;123796;1102;104252;-79
2023/06/08 01:26:49;;;;;;;15.47;4.70;;;;;;;19.33;41.70;100701.64;123772;1102;104306;-79
2023/06/08 01:29:21;;;;;;;9.53;4.17;;;;;;;19.27;41.64;100699.84;123738;1102;104406;-79
2023/06/08 01:31:53;;;;;;;11.30;4.23;;;;;;;19.21;41.56;100700.72;123782;1102;104229;-79
2023/06/08 01:34:24;;;;;;;6.93;4.07;;;;;;;19.17;41.96;100700.70;123719;1100;104271;-79
2023/06/08 01:37:02;;;;;;;9.77;4.33;;;;;;;19.11;42.05;100698.90;123807;1102;104245;-80
2023/06/08 01:39:46;;;;;;;9.60;4.20;;;;;;;19.10;41.77;100694.45;123687;1102;104400;-79
2023/06/08 01:42:20;;;;;;;11.53;4.23;;;;;;;19.10;41.85;100705.09;123773;1102;104356;-78
2023/06/08 01:45:00;;;;;;;8.17;4.00;;;;;;;19.11;42.31;100698.02;123818;1102;104284;-80
2023/06/08 01:47:39;;;;;;;8.63;3.93;;;;;;;19.09;42.07;100694.45;123960;1100;104309;-78
2023/06/08 01:50:12;;;;;;;7.37;3.77;;;;;;;19.08;42.36;100701.55;123810;1101;104374;-78
2023/06/08 01:52:43;;;;;;;8.60;4.40;;;;;;;19.04;42.42;100708.64;123810;1102;104290;-79
2023/06/08 01:55:19;;;;;;;8.53;4.30;;;;;;;19.02;42.31;100710.38;123769;1102;104376;-78
2023/06/08 01:57:51;;;;;;;12.93;4.40;;;;;;;18.99;42.50;100713.02;123854;1102;104207;-79
2023/06/08 02:00:23;;;;;;;10.30;4.60;;;;;;;18.95;42.46;100707.72;123802;1102;104377;-79
2023/06/08 02:02:55;;;;;;;10.27;4.33;;;;;;;18.92;42.50;100715.67;123877;1102;104293;-81
2023/06/08 02:05:27;;;;;;;11.63;4.70;;;;;;;18.93;42.46;100710.36;123696;1102;104169;-78
2023/06/08 02:07:58;;;;;;;7.27;4.10;;;;;;;18.95;43.34;100707.72;123690;1102;104261;-78
2023/06/08 02:10:29;;;;;;;10.47;4.37;;;;;;;18.96;42.51;100707.69;123684;1102;104264;-80
2023/06/08 02:13:02;;;;;;;9.67;4.70;;;;;;;18.96;42.99;100705.03;123650;1102;104255;-79
2023/06/08 02:15:33;;;;;;;9.40;4.57;;;;;;;18.97;42.99;100709.48;123692;1102;104361;-79
2023/06/08 02:18:05;;;;;;;11.30;4.40;;;;;;;18.99;43.40;100718.34;123754;1102;104316;-79
2023/06/08 02:20:36;;;;;;;14.27;4.50;;;;;;;18.98;43.21;100719.24;123716;1102;104396;-80
2023/06/08 02:23:07;;;;;;;12.30;4.70;;;;;;;18.97;43.03;100712.14;123782;1102;104245;-79
2023/06/08 02:25:39;;;;;;;14.40;4.90;;;;;;;18.99;42.87;100718.34;123654;1102;105482;-79
2023/06/08 02:28:10;;;;;;;12.23;5.13;;;;;;;19.01;43.47;100710.37;123726;1102;104197;-82
2023/06/08 02:30:41;;;;;;;10.60;4.53;;;;;;;19.01;43.22;100708.63;123699;1102;104300;-79
2023/06/08 02:33:14;;;;;;;12.80;4.80;;;;;;;19.02;43.35;100704.18;123665;1102;104267;-79
2023/06/08 02:35:46;;;;;;;13.07;5.10;;;;;;;19.03;43.48;100705.97;123709;1102;104283;-79
2023/06/08 02:38:18;;;;;;;12.27;4.93;;;;;;;19.05;43.42;100714.83;123724;1102;104335;-79
2023/06/08 02:40:49;;;;;;;13.27;5.10;;;;;;;19.04;43.31;100711.30;123766;1102;104306;-79
2023/06/08 02:43:20;;;;;;;15.67;5.17;;;;;;;19.01;43.64;100711.28;123835;1102;104239;-80
2023/06/08 02:45:53;;;;;;;10.93;5.20;;;;;;;19.01;44.29;100716.59;123770;1102;104453;-80
2023/06/08 02:48:24;;;;;;;11.27;4.50;;;;;;;19.01;44.12;100708.63;123699;1102;104220;-79
2023/06/08 02:50:56;;;;;;;16.23;5.33;;;;;;;19.02;43.80;100718.36;123779;1102;104274;-80
2023/06/08 02:53:27;;;;;;;14.93;5.00;;;;;;;19.03;43.88;100716.61;123872;1102;104411;-79
2023/06/08 02:55:59;;;;;;;18.03;5.67;;;;;;;19.01;44.69;100713.94;123799;1102;104383;-80
2023/06/08 02:58:31;;;;;;;23.63;5.73;;;;;;;18.99;44.70;100718.34;123782;1102;104508;-80
2023/06/08 03:01:04;;;;;;;20.23;5.47;;;;;;;19.01;44.25;100721.01;123776;1102;104326;-81
2023/06/08 03:03:53;;;;;;;14.20;4.83;;;;;;;18.99;44.61;100714.80;123802;1102;104387;-81
2023/06/08 03:06:26;;;;;;;14.27;5.20;;;;;;;18.97;44.23;100716.58;123967;1102;104278;-80
2023/06/08 03:09:00;;;;;;;11.37;4.77;;;;;;;18.95;44.77;100719.23;123979;1101;104309;-80
2023/06/08 03:11:32;;;;;;;13.60;5.20;;;;;;;18.96;44.66;100718.33;123839;1102;104175;-80
2023/06/08 03:14:04;;;;;;;11.90;4.80;;;;;;;18.98;44.82;100719.24;123793;1102;104229;-80
2023/06/08 03:16:36;;;;;;;12.53;4.90;;;;;;;19.02;44.87;100721.02;123708;1102;104268;-80
2023/06/08 03:19:07;;;;;;;13.53;4.70;;;;;;;19.03;44.85;100722.80;123810;1102;104767;-80
2023/06/08 03:21:41;;;;;;;12.87;5.00;;;;;;;19.07;44.85;100722.81;123737;1102;104279;-80
2023/06/08 03:24:14;;;;;;;12.90;4.60;;;;;;;19.07;44.92;100722.81;123791;1102;104395;-80
2023/06/08 03:26:46;;;;;;;12.03;4.73;;;;;;;19.08;44.98;100721.95;123867;1100;104264;-80
2023/06/08 03:29:18;;;;;;;15.55;4.50;;;;;;;19.08;45.16;100719.28;123947;1102;104926;-81
2023/06/08 03:31:49;;;;;;;12.40;4.37;;;;;;;19.09;44.76;100721.04;123960;1102;104243;-80
2023/06/08 03:34:23;;;;;;;11.90;4.40;;;;;;;19.07;44.67;100720.16;123889;1102;104226;-81
2023/06/08 03:36:55;;;;;;;10.53;4.13;;;;;;;19.03;44.96;100717.48;123825;1102;104294;-81
2023/06/08 03:39:26;;;;;;;;;;;;;;;19.02;44.95;100720.14;123877;1102;104661;-80
2023/06/08 03:41:58;;;;;;;12.50;4.40;;;;;;;19.02;45.05;100726.33;123772;1102;104370;-79
2023/06/08 03:44:30;;;;;;;10.83;4.50;;;;;;;19.10;44.82;100723.71;123681;1102;104278;-79
2023/06/08 03:47:02;;;;;;;13.50;4.70;;;;;;;19.17;45.05;100732.63;123649;1102;104229;-78
2023/06/08 03:49:34;;;;;;;12.37;4.07;;;;;;;19.21;45.23;100724.66;123592;1102;104300;-82
2023/06/08 03:52:07;;;;;;;11.93;4.60;;;;;;;19.27;44.83;100721.12;123670;1102;104208;-75
2023/06/08 03:54:39;;;;;;;10.73;4.70;;;;;;;19.34;45.03;100730.03;123743;1102;104650;-76
2023/06/08 03:57:10;;;;;;;11.17;4.43;;;;;;;19.43;45.22;100731.81;123245;1102;104360;-76
2023/06/08 03:59:42;;;;;;;13.63;4.47;;;;;;;19.51;45.33;100730.96;123442;1102;104268;-76
2023/06/08 04:02:13;;;;;;;10.33;4.53;;;;;;;19.60;44.93;100737.19;123539;1101;104328;-76
2023/06/08 04:04:46;;;;;;;11.60;4.53;;;;;;;19.68;44.96;100738.98;123394;1102;104297;-76
2023/06/08 04:07:20;;;;;;;12.68;5.30;;;;;;;19.75;44.68;100738.09;123386;1102;105666;-75
2023/06/08 04:09:51;;;;;;;13.97;4.93;;;;;;;19.82;45.55;100736.39;123833;1102;104354;-78
2023/06/08 04:12:23;;;;;;;11.85;4.20;;;;;;;19.87;45.29;100733.73;123573;1102;104191;-76
2023/06/08 04:14:55;;;;;;;9.93;4.50;;;;;;;19.94;44.95;100735.49;123459;1102;104248;-76
2023/06/08 04:17:27;;;;;;;8.87;4.20;;;;;;;19.99;45.48;100733.75;123502;1102;104697;-78
2023/06/08 04:19:58;;;;;;;12.60;4.40;;;;;;;20.04;44.96;100731.96;123592;1102;104368;-77
2023/06/08 04:22:31;;;;;;;13.50;4.67;;;;;;;20.08;44.68;100731.05;123652;1102;104235;-77
2023/06/08 04:25:02;;;;;;;13.90;4.77;;;;;;;20.13;44.58;100727.52;123729;1102;104304;-76
2023/06/08 04:27:34;;;;;;;10.77;4.63;;;;;;;20.16;45.48;100725.73;123804;1102;104351;-78
2023/06/08 04:30:08;;;;;;;9.17;4.00;;;;;;;20.23;44.72;100731.97;123781;1102;104412;-78
2023/06/08 04:32:40;;;;;;;12.93;4.60;;;;;;;20.29;45.19;100735.51;124204;1101;104283;-76
2023/06/08 04:35:12;;;;;;;13.03;5.00;;;;;;;20.34;45.16;100735.50;123842;1102;102033;-78
2023/06/08 04:37:44;;;;;;;11.87;4.57;;;;;;;20.33;44.66;100736.38;123892;1100;104169;-76
2023/06/08 04:40:19;;;;;;;13.73;4.87;;;;;;;20.37;44.42;100732.84;123880;1102;104245;-77
2023/06/08 04:42:51;;;;;;;8.33;4.67;;;;;;;20.40;44.92;100739.95;123593;1102;104318;-78
2023/06/08 04:45:23;;;;;;;13.20;4.90;;;;;;;20.40;44.77;100739.95;123639;1102;104249;-76
2023/06/08 04:47:57;;;;;;;10.87;4.50;;;;;;;20.38;44.59;100745.28;123780;1102;104361;-78
2023/06/08 04:50:29;;;;;;;12.87;5.17;;;;;;;20.38;44.39;100742.63;123791;1102;104712;-79
2023/06/08 04:53:02;;;;;;;16.47;4.60;;;;;;;20.36;44.14;100736.38;123941;1102;104242;-79
2023/06/08 04:55:33;;;;;;;15.00;4.63;;;;;;;20.41;44.38;100739.05;124213;1102;104329;-79
2023/06/08 04:58:07;;;;;;;12.90;4.73;;;;;;;20.44;44.34;100733.71;124168;1102;104229;-81
2023/06/08 05:00:40;;;;;;;12.57;4.73;;;;;;;20.44;44.37;100737.29;124645;1102;104211;-83
2023/06/08 05:03:14;;;;;;;11.97;4.63;;;;;;;20.49;44.72;100739.95;124415;1102;104239;-80
2023/06/08 05:05:54;;;;;;;9.95;4.50;;;;;;;20.53;45.42;100741.70;123917;1102;104260;-77
2023/06/08 05:08:28;;;;;;;9.20;4.50;;;;;;;20.61;45.06;100739.89;123882;1101;104326;-78
2023/06/08 05:10:59;;;;;;;13.70;4.37;;;;;;;20.71;44.51;100737.25;124216;1101;104389;-76
2023/06/08 05:13:31;;;;;;;12.97;5.10;;;;;;;20.77;44.43;100735.48;124065;1099;104268;-77
2023/06/08 05:16:02;;;;;;;12.90;4.73;;;;;;;20.84;44.36;100725.67;123905;1101;104750;-72
2023/06/08 05:18:34;;;;;;;9.83;4.63;;;;;;;20.93;44.46;100724.77;123740;1102;104402;-76
2023/06/08 05:21:06;;;;;;;11.37;4.47;;;;;;;21.01;44.67;100730.95;123913;1101;104226;-76
2023/06/08 05:23:38;;;;;;;13.37;4.97;;;;;;;21.09;45.00;100741.59;124143;1102;104668;-73
2023/06/08 05:26:12;;;;;;;15.77;5.07;;;;;;;21.21;45.11;100730.88;124312;1101;104174;-74
2023/06/08 05:28:43;;;;;;;9.37;4.37;;;;;;;21.31;44.42;100731.71;124193;1102;104277;-79
2023/06/08 05:31:15;;;;;;;9.87;4.60;;;;;;;21.34;45.17;100732.58;124260;1102;104252;-81
2023/06/08 05:33:46;;;;;;;14.17;4.40;;;;;;;21.34;44.84;100735.24;124727;1101;104194;-77
2023/06/08 05:36:17;;;;;;;10.63;4.47;;;;;;;21.36;44.75;100733.48;124618;1102;102919;-76
2023/06/08 05:38:49;;;;;;;14.27;5.43;;;;;;;21.43;43.67;100744.12;124530;1102;104306;-80
2023/06/08 05:41:22;;;;;;;16.20;5.10;;;;;;;21.45;44.35;100744.99;124537;1102;104236;-80
2023/06/08 05:43:56;;;;;;;12.57;4.83;;;;;;;21.51;44.53;100739.66;124556;1102;104347;-79
2023/06/08 05:46:28;;;;;;;15.60;5.70;;;;;;;21.59;44.54;100750.30;124104;1102;104418;-80
2023/06/08 05:48:59;;;;;;;13.67;4.60;;;;;;;21.63;44.02;100746.69;124292;1102;104242;-77
2023/06/08 05:51:33;;;;;;;18.10;5.50;;;;;;;21.69;43.99;100749.32;124305;1100;104105;-77
2023/06/08 05:54:08;;;;;;;17.00;5.23;;;;;;;21.71;43.79;100742.21;124426;1102;104229;-77
2023/06/08 05:56:39;;;;;;;13.77;4.50;;;;;;;21.76;44.04;100752.86;124726;1102;103061;-80
2023/06/08 05:59:11;;;;;;;15.33;4.60;;;;;;;21.76;44.23;100747.52;124629;1102;104235;-73
2023/06/08 06:01:43;;;;;;;15.00;4.53;;;;;;;21.78;43.78;100756.41;124393;1102;104216;-73
2023/06/08 06:04:14;;;;;;;16.80;4.77;;;;;;;21.78;44.37;100756.41;124663;1101;104185;-75
2023/06/08 06:06:46;;;;;;;11.47;4.63;;;;;;;21.77;44.05;100749.27;124708;1102;104383;-75
2023/06/08 06:09:18;;;;;;;15.10;4.40;;;;;;;21.80;43.87;100742.15;124826;1102;104316;-72
2023/06/08 06:11:49;;;;;;;9.73;4.33;;;;;;;21.78;44.23;100743.92;124992;1102;104140;-78
2023/06/08 06:14:28;;;;;;;14.90;4.77;;;;;;;21.83;43.86;100752.81;124621;1102;104242;-76
2023/06/08 06:17:20;;;;;;;11.53;4.17;;;;;;;21.83;44.06;100743.89;124624;1102;103447;-76
2023/06/08 06:20:05;;;;;;;15.30;4.05;;;;;;;21.84;43.46;100748.34;124282;1102;104189;-79
2023/06/08 06:22:45;;;;;;;6.70;3.53;;;;;;;21.92;43.83;100749.17;124310;1102;104398;-73
2023/06/08 06:25:21;;;;;;;7.80;3.60;;;;;;;22.00;43.51;100749.12;124380;1102;103344;-77
2023/06/08 06:28:01;;;;;;;10.33;3.97;;;;;;;22.11;43.44;100747.27;124423;1102;104121;-78
2023/06/08 06:30:44;;;;;;;10.97;4.00;;;;;;;22.19;43.37;100744.51;124594;1103;103425;-77
2023/06/08 06:33:19;;;;;;;7.03;4.07;;;;;;;22.25;42.86;100744.45;124617;1102;103614;-78
2023/06/08 06:36:09;;;;;;;;;;;;;;;;;;;;;
2023/06/08 06:38:55;;;;;;;9.17;3.53;;;;;;;22.38;42.49;100739.95;125133;1102;102843;-76
2023/06/08 06:41:45;;;;;;;9.13;3.77;;;;;;;22.46;42.75;100731.86;124412;1102;104226;-75
2023/06/08 06:45:11;;;;;;;8.47;3.80;;;;;;;22.58;42.73;100729.94;124439;1102;104242;-79
2023/06/08 06:47:55;;;;;;;7.57;3.53;;;;;;;22.73;42.43;100734.22;124367;1102;104431;-76
2023/06/08 06:50:26;;;;;;;9.57;3.60;;;;;;;22.83;42.33;100729.68;124660;1102;104161;-76
2023/06/08 06:53:00;;;;;;;10.13;3.70;;;;;;;22.96;42.22;100731.29;124473;1102;102962;-74
2023/06/08 06:55:37;;;;;;;9.08;3.87;;;;;;;23.10;42.33;100731.16;124577;1102;103070;-82
2023/06/08 06:58:10;;;;;;;10.33;3.50;;;;;;;23.21;41.45;100722.13;124690;1102;104251;-82
2023/06/08 07:00:57;;;;;;;;;;;;;;;23.33;39.29;100724.64;124577;1102;102619;-85
2023/06/08 07:03:34;;;;;;;9.50;3.73;;;;;;;23.45;41.00;100731.59;124506;1101;103556;-81
2023/06/08 07:06:13;;;;;;;8.60;3.50;;;;;;;23.62;40.96;100726.91;124306;1102;104441;-74
2023/06/08 07:08:51;;;;;;;11.17;3.90;;;;;;;23.74;40.31;100732.98;124344;1102;104437;-75
2023/06/08 07:11:40;;;;;;;8.13;3.73;;;;;;;23.79;39.87;100733.80;124361;1102;104092;-78
2023/06/08 07:14:15;;;;;;;7.00;3.40;;;;;;;23.92;39.86;100731.83;124430;1102;104233;-73
2023/06/08 07:17:00;;;;;;;7.57;3.70;;;;;;;24.00;39.90;100732.62;124404;1102;104217;-78
2023/06/08 07:20:01;;;;;;;;;;;;;;;;;;;;;
2023/06/08 07:22:49;;;;;;;10.70;3.60;;;;;;;24.08;39.04;100727.14;124545;1102;104180;-77
2023/06/08 07:25:27;;;;;;;8.75;3.80;;;;;;;24.17;38.89;100726.98;124611;1102;104227;-78
2023/06/08 07:28:03;;;;;;;8.70;3.43;;;;;;;24.20;38.16;100726.93;124494;1101;104733;-78
2023/06/08 07:30:38;;;;;;;8.40;3.40;;;;;;;24.19;38.18;100733.19;124450;1102;104198;-76
2023/06/08 07:33:10;;;;;;;8.73;3.53;;;;;;;24.27;37.89;100725.89;124598;1102;102170;-80
2023/06/08 07:35:55;;;;;;;8.40;3.57;;;;;;;24.33;37.43;100732.95;124515;1101;104245;-80
2023/06/08 07:38:34;;;;;;;7.87;3.27;;;;;;;24.39;37.58;100733.72;124263;1102;104329;-77
2023/06/08 07:41:10;;;;;;;8.40;3.37;;;;;;;24.45;37.64;100732.74;124786;1102;104163;-77
2023/06/08 07:43:57;;;;;;;9.90;3.47;;;;;;;24.50;37.40;100728.17;124512;1102;106991;-79
2023/06/08 07:46:49;;;;;;;8.20;3.50;;;;;;;24.63;36.56;100718.12;124482;1102;104695;-78
2023/06/08 07:49:34;;;;;;;8.17;3.20;;;;;;;24.72;36.92;100728.67;124585;1102;102473;-78
2023/06/08 07:52:16;;;;;;;5.83;3.33;;;;;;;24.82;36.54;100726.69;124933;1102;104332;-81
2023/06/08 07:55:00;;;;;;;6.00;3.30;;;;;;;24.92;37.06;100712.19;124700;1102;102022;-78
2023/06/08 07:57:36;;;;;;;11.67;3.50;;;;;;;25.16;36.29;100733.19;126261;1101;102742;-79
2023/06/08 08:00:20;;;;;;;8.43;3.53;;;;;;;25.30;36.28;100729.30;125706;1102;102245;-78
2023/06/08 08:02:55;;;;;;;6.13;3.37;;;;;;;25.46;36.32;100724.50;124802;1101;104297;-81
2023/06/08 08:05:27;;;;;;;6.93;3.50;;;;;;;25.59;36.24;100721.54;124480;1102;104166;-77
2023/06/08 08:07:59;;;;;;;7.33;3.53;;;;;;;25.73;35.91;100726.59;124367;1102;102138;-80
2023/06/08 08:10:32;;;;;;;8.60;3.57;;;;;;;25.77;36.09;100720.21;124637;1102;104289;-80
2023/06/08 08:13:04;;;;;;;7.55;3.33;;;;;;;25.86;35.72;100724.49;124757;1101;104220;-79
2023/06/08 08:15:36;;;;;;;11.37;3.67;;;;;;;25.97;35.86;100719.73;124551;1102;104166;-79
2023/06/08 08:18:13;;;;;;;6.47;3.70;;;;;;;26.00;35.25;100722.38;124579;1102;102535;-78
2023/06/08 08:20:44;;;;;;;7.93;3.33;;;;;;;26.00;35.59;100717.00;124329;1102;102112;-76
2023/06/08 08:23:16;;;;;;;7.53;3.50;;;;;;;26.10;35.54;100717.64;124296;1102;104403;-82
2023/06/08 08:25:49;;;;;;;12.23;3.77;;;;;;;26.18;35.61;100712.98;125091;1102;103374;-78
2023/06/08 08:28:21;;;;;;;7.62;3.30;;;;;;;26.27;35.83;100710.05;125129;1101;102960;-78
2023/06/08 08:31:08;;;;;;;8.40;3.40;;;;;;;26.27;35.54;100710.05;125139;1102;102476;-83
2023/06/08 08:33:46;;;;;;;7.70;3.80;;;;;;;26.53;35.08;100700.38;125448;1102;102659;-79
2023/06/08 08:36:28;;;;;;;13.47;4.20;;;;;;;26.71;35.06;100702.60;124547;1102;104402;-75
2023/06/08 08:39:00;;;;;;;11.33;4.07;;;;;;;26.82;34.68;100704.99;125198;1102;102211;-78
2023/06/08 08:41:34;;;;;;;7.67;3.40;;;;;;;27.07;34.79;100709.67;124446;1102;104271;-84
2023/06/08 08:44:15;;;;;;;5.83;3.50;;;;;;;27.11;34.83;100702.38;124799;1102;103681;-78
2023/06/08 08:46:49;;;;;;;8.97;3.33;;;;;;;27.28;34.32;100702.73;124940;1102;104422;-78
2023/06/08 08:49:30;;;;;;;8.63;3.37;;;;;;;27.46;33.87;100703.12;124220;1102;102464;-77
2023/06/08 08:52:09;;;;;;;9.40;3.70;;;;;;;27.58;33.92;100695.56;124542;1099;104245;-79
2023/06/08 08:54:42;;;;;;;11.43;3.40;;;;;;;27.62;33.26;100699.90;124480;1102;104284;-79
2023/06/08 08:57:15;;;;;;;6.17;3.50;;;;;;;27.57;32.88;100687.52;124512;1102;102185;-76
2023/06/08 08:59:49;;;;;;;8.40;3.63;;;;;;;27.64;33.55;100693.59;124566;1102;104266;-77
2023/06/08 09:02:23;;;;;;;6.10;3.17;;;;;;;27.87;33.10;100690.14;126105;1102;103343;-80
2023/06/08 09:04:55;;;;;;;6.97;3.40;;;;;;;28.03;33.20;100695.94;124452;1101;104284;-78
2023/06/08 09:07:27;;;;;;;5.65;3.47;;;;;;;28.11;32.41;100689.36;124292;1100;104185;-78
2023/06/08 09:10:19;;;;;;;9.67;3.67;;;;;;;28.07;32.12;100687.69;124204;1102;104336;-79
2023/06/08 09:12:52;;;;;;;7.77;3.40;;;;;;;28.10;31.79;100686.70;124415;1102;104348;-80
2023/06/08 09:15:30;;;;;;;5.37;2.97;;;;;;;27.95;31.43;100693.48;124550;1102;109262;-81
2023/06/08 09:18:17;;;;;;;8.27;3.53;;;;;;;28.06;31.30;100687.73;124621;1102;104201;-82
2023/06/08 09:20:51;;;;;;;5.83;3.10;;;;;;;28.13;31.03;100678.52;126252;1100;101901;-78
2023/06/08 09:23:24;;;;;;;9.50;3.37;;;;;;;28.04;31.16;100677.00;124765;1101;104172;-80
2023/06/08 09:26:00;;;;;;;6.80;3.25;;;;;;;28.07;30.95;100681.42;124870;1102;118213;-78
2023/06/08 09:28:33;;;;;;;4.90;3.00;;;;;;;28.21;30.29;100678.25;124421;1102;104216;-76
2023/06/08 09:31:12;;;;;;;9.07;3.30;;;;;;;28.22;29.86;100686.29;124625;1100;102517;-72
2023/06/08 09:33:47;;;;;;;4.67;2.90;;;;;;;28.16;29.98;100691.89;124588;1102;104176;-78
2023/06/08 09:36:21;;;;;;;4.53;2.93;;;;;;;27.89;29.58;100677.48;124300;1102;103285;-82
2023/06/08 09:38:58;;;;;;;6.50;3.50;;;;;;;27.85;29.72;100679.41;124277;1102;104245;-78
2023/06/08 09:41:32;;;;;;;5.90;3.07;;;;;;;27.79;29.82;100668.83;124446;1102;104463;-76
2023/06/08 09:44:17;;;;;;;8.03;3.47;;;;;;;27.90;29.58;100665.78;124416;1102;104274;-78
2023/06/08 09:46:49;;;;;;;7.63;3.23;;;;;;;27.95;30.28;100664.70;124535;1102;113250;-76
2023/06/08 09:49:21;;;;;;;7.63;3.60;;;;;;;27.88;29.53;100670.34;124447;1102;104213;-81
2023/06/08 09:51:53;;;;;;;6.27;3.23;;;;;;;27.90;29.59;100665.78;124903;1102;104171;-80
2023/06/08 09:54:25;;;;;;;4.87;3.30;;;;;;;28.04;29.72;100662.64;124680;1102;104332;-77
2023/06/08 09:57:00;;;;;;;8.08;3.08;;;;;;;28.08;29.25;100665.19;124882;1102;101916;-76
2023/06/08 09:59:46;;;;;;;7.63;3.33;;;;;;;28.13;29.44;100656.94;124452;1102;104174;-79
2023/06/08 10:02:42;;;;;;;7.45;3.20;;;;;;;28.21;29.04;100652.14;124295;1102;104277;-77
2023/06/08 10:05:45;;;;;;;4.83;3.07;;;;;;;28.28;29.13;100651.00;124269;1102;104233;-76
2023/06/08 10:08:27;;;;;;;6.43;3.10;;;;;;;28.38;28.85;100659.64;124463;1102;104418;-77
2023/06/08 10:11:10;;;;;;;6.10;3.13;;;;;;;28.41;28.30;100650.56;124826;1102;104248;-81
2023/06/08 10:13:47;;;;;;;4.80;3.10;;;;;;;28.46;28.05;100651.27;124481;1102;104226;-79
2023/06/08 10:16:29;;;;;;;5.27;2.87;;;;;;;28.43;28.25;100652.25;124779;1102;104254;-81
2023/06/08 10:19:02;;;;;;;6.70;3.60;;;;;;;28.42;28.12;100633.41;124910;1101;103429;-79
2023/06/08 10:29:14;;;;;;;9.30;3.23;;;;;;;28.20;27.98;100627.91;125761;1102;112760;-83
2023/06/08 10:31:51;;;;;;;10.23;3.20;;;;;;;28.13;27.90;100629.96;125971;1102;103119;-84
2023/06/08 10:34:50;;;;;;;9.13;3.40;;;;;;;28.11;27.85;100639.90;124804;1100;104252;-81
2023/06/08 10:37:48;;;;;;;8.10;3.30;;;;;;;28.14;27.84;100634.39;125614;1102;103074;-83
2023/06/08 10:40:31;;;;;;;5.70;3.20;;;;;;;28.22;27.57;100632.33;124791;1101;104313;-79
2023/06/08 10:43:08;;;;;;;9.30;3.15;;;;;;;28.17;27.95;100622.63;124564;1102;104173;-77
2023/06/08 10:45:43;;;;;;;6.13;3.33;;;;;;;28.15;27.74;100622.69;124811;1102;104201;-79
2023/06/08 10:48:20;;;;;;;7.85;3.25;;;;;;;28.11;27.40;100616.53;124574;1102;104175;-78
2023/06/08 10:50:57;;;;;;;6.63;3.53;;;;;;;28.09;27.53;100622.90;124501;1100;104473;-77
2023/06/08 10:53:59;;;;;;;6.27;3.20;;;;;;;27.93;27.85;100626.09;124674;1102;102213;-79
2023/06/08 10:56:53;;;;;;;7.35;3.70;;;;;;;27.91;27.64;100617.19;124780;1102;104227;-82
2023/06/08 10:59:47;;;;;;;10.73;4.00;;;;;;;27.79;27.92;100618.47;124786;1102;102338;-80
2023/06/08 11:02:23;;;;;;;8.07;3.93;;;;;;;27.82;27.58;100620.20;124704;1102;102596;-80
2023/06/08 11:05:22;;;;;;;7.03;4.20;;;;;;;27.75;27.66;100608.75;124471;1102;102607;-79
2023/06/08 11:07:56;;;;;;;8.60;4.63;;;;;;;27.73;27.64;100612.42;124540;1102;104181;-77
2023/06/08 11:10:31;;;;;;;10.50;4.50;;;;;;;27.69;27.70;100617.05;126288;1100;102765;-80
2023/06/08 11:13:05;;;;;;;;;;;;;;;27.69;27.17;100605.36;125744;1100;103224;-74
2023/06/08 11:15:42;;;;;;;11.07;5.20;;;;;;;27.66;27.18;100613.55;124405;1102;104162;-80
2023/06/08 11:18:28;;;;;;;12.47;5.47;;;;;;;27.55;27.14;100608.52;124505;1102;104259;-83
2023/06/08 11:21:40;;;;;;;;;;;;;;;;;;;;;
2023/06/08 11:24:34;;;;;;;9.30;5.43;;;;;;;27.66;27.50;100600.07;124390;1102;102440;-77
2023/06/08 11:27:16;;;;;;;10.87;5.43;;;;;;;27.79;27.48;100601.43;124514;1102;104226;-80
2023/06/08 11:29:49;;;;;;;10.97;4.97;;;;;;;27.96;27.34;100588.27;124591;1102;102517;-79
2023/06/08 11:32:24;;;;;;;12.70;5.40;;;;;;;27.94;27.52;100595.51;124615;1102;104174;-82
2023/06/08 11:35:15;;;;;;;10.87;6.00;;;;;;;27.97;27.25;100597.23;124788;1102;104294;-80
2023/06/08 11:37:51;;;;;;;8.93;5.47;;;;;;;27.98;27.18;100591.78;125540;1102;103119;-82
2023/06/08 11:40:24;;;;;;;10.25;5.42;;;;;;;27.95;27.25;100585.63;124884;1101;104176;-78
2023/06/08 11:43:09;;;;;;;11.23;5.50;;;;;;;27.92;26.75;100578.48;124781;1101;104203;-79
2023/06/08 11:45:46;;;;;;;10.25;5.45;;;;;;;27.87;26.89;100580.47;124770;1102;104227;-79
2023/06/08 11:48:22;;;;;;;10.27;5.40;;;;;;;27.76;26.83;100585.36;125379;1102;103117;-88
2023/06/08 11:50:55;;;;;;;11.87;5.77;;;;;;;27.86;27.23;100584.12;125490;1102;104191;-81
2023/06/08 11:53:29;;;;;;;10.58;5.30;;;;;;;27.87;26.78;100582.30;125506;1102;102503;-82
2023/06/08 11:56:05;;;;;;;10.93;5.53;;;;;;;27.90;26.84;100566.88;125581;1102;103727;-85
2023/06/08 11:58:48;;;;;;;9.70;5.30;;;;;;;27.85;27.02;100563.47;125420;1102;101960;-81
2023/06/08 12:01:21;;;;;;;10.17;5.30;;;;;;;27.93;26.76;100573.98;124950;1101;104245;-79